sensor_id;sensor_type;location;lat;lon;timestamp;P1;durP1;ratioP1;P2;durP2;ratioP2
13895;SDS011;7018;50.838;4.226;2024-03-02T00:08:16;0.30;;;0.30;;
13895;SDS011;7018;50.838;4.226;2024-03-02T00:10:47;0.20;;;0.20;;
13895;SDS011;7018;50.838;4.226;2024-03-02T00:13:16;0.20;;;0.20;;
13895;SDS011;7018;50.838;4.226;2024-03-02T00:15:47;0.20;;;0.20;;
13895;SDS011;7018;50.838;4.226;2024-03-02T00:18:20;0.17;;;0.17;;
13895;SDS011;7018;50.838;4.226;2024-03-02T00:20:49;0.20;;;0.20;;
13895;SDS011;7018;50.838;4.226;2024-03-02T00:23:19;0.20;;;0.20;;
13895;SDS011;7018;50.838;4.226;2024-03-02T00:25:54;0.30;;;0.30;;
13895;SDS011;7018;50.838;4.226;2024-03-02T00:31:05;0.20;;;0.20;;
13895;SDS011;7018;50.838;4.226;2024-03-02T00:33:47;0.20;;;0.20;;
13895;SDS011;7018;50.838;4.226;2024-03-02T00:36:17;0.20;;;0.20;;
13895;SDS011;7018;50.838;4.226;2024-03-02T00:38:49;0.20;;;0.20;;
13895;SDS011;7018;50.838;4.226;2024-03-02T00:41:30;0.23;;;0.23;;
13895;SDS011;7018;50.838;4.226;2024-03-02T00:46:27;0.20;;;0.20;;
13895;SDS011;7018;50.838;4.226;2024-03-02T00:48:58;0.20;;;0.20;;
13895;SDS011;7018;50.838;4.226;2024-03-02T00:51:34;0.30;;;0.30;;
13895;SDS011;7018;50.838;4.226;2024-03-02T00:54:03;0.20;;;0.20;;
13895;SDS011;7018;50.838;4.226;2024-03-02T00:56:32;0.20;;;0.20;;
13895;SDS011;7018;50.838;4.226;2024-03-02T00:59:01;0.20;;;0.20;;
13895;SDS011;7018;50.838;4.226;2024-03-02T01:01:29;0.20;;;0.20;;
13895;SDS011;7018;50.838;4.226;2024-03-02T01:03:57;0.20;;;0.20;;
13895;SDS011;7018;50.838;4.226;2024-03-02T01:06:25;0.13;;;0.13;;
13895;SDS011;7018;50.838;4.226;2024-03-02T01:08:53;0.20;;;0.20;;
13895;SDS011;7018;50.838;4.226;2024-03-02T01:11:21;0.20;;;0.20;;
13895;SDS011;7018;50.838;4.226;2024-03-02T01:13:49;0.30;;;0.30;;
13895;SDS011;7018;50.838;4.226;2024-03-02T01:16:17;0.30;;;0.30;;
13895;SDS011;7018;50.838;4.226;2024-03-02T01:18:44;0.30;;;0.30;;
13895;SDS011;7018;50.838;4.226;2024-03-02T01:21:12;0.30;;;0.30;;
13895;SDS011;7018;50.838;4.226;2024-03-02T01:23:40;0.30;;;0.30;;
13895;SDS011;7018;50.838;4.226;2024-03-02T01:26:08;0.20;;;0.20;;
13895;SDS011;7018;50.838;4.226;2024-03-02T01:28:36;0.27;;;0.27;;
13895;SDS011;7018;50.838;4.226;2024-03-02T01:31:04;0.20;;;0.20;;
13895;SDS011;7018;50.838;4.226;2024-03-02T01:33:33;0.30;;;0.30;;
13895;SDS011;7018;50.838;4.226;2024-03-02T01:36:01;0.30;;;0.30;;
13895;SDS011;7018;50.838;4.226;2024-03-02T01:38:29;0.30;;;0.30;;
13895;SDS011;7018;50.838;4.226;2024-03-02T01:40:58;0.20;;;0.20;;
13895;SDS011;7018;50.838;4.226;2024-03-02T01:43:25;0.30;;;0.30;;
13895;SDS011;7018;50.838;4.226;2024-03-02T01:45:54;0.20;;;0.20;;
13895;SDS011;7018;50.838;4.226;2024-03-02T01:48:23;0.30;;;0.30;;
13895;SDS011;7018;50.838;4.226;2024-03-02T01:50:51;0.30;;;0.30;;
13895;SDS011;7018;50.838;4.226;2024-03-02T01:53:18;0.30;;;0.30;;
13895;SDS011;7018;50.838;4.226;2024-03-02T01:55:46;0.20;;;0.20;;
13895;SDS011;7018;50.838;4.226;2024-03-02T01:58:13;0.27;;;0.27;;
13895;SDS011;7018;50.838;4.226;2024-03-02T02:00:41;0.20;;;0.20;;
13895;SDS011;7018;50.838;4.226;2024-03-02T02:03:09;0.30;;;0.30;;
13895;SDS011;7018;50.838;4.226;2024-03-02T02:05:38;0.30;;;0.30;;
13895;SDS011;7018;50.838;4.226;2024-03-02T02:08:06;0.30;;;0.30;;
13895;SDS011;7018;50.838;4.226;2024-03-02T02:10:34;0.37;;;0.37;;
13895;SDS011;7018;50.838;4.226;2024-03-02T02:13:02;0.20;;;0.20;;
13895;SDS011;7018;50.838;4.226;2024-03-02T02:15:31;0.20;;;0.20;;
13895;SDS011;7018;50.838;4.226;2024-03-02T02:18:01;0.20;;;0.20;;
13895;SDS011;7018;50.838;4.226;2024-03-02T02:20:31;0.30;;;0.30;;
13895;SDS011;7018;50.838;4.226;2024-03-02T02:23:02;0.20;;;0.20;;
13895;SDS011;7018;50.838;4.226;2024-03-02T02:25:36;0.23;;;0.23;;
13895;SDS011;7018;50.838;4.226;2024-03-02T02:28:04;0.30;;;0.30;;
13895;SDS011;7018;50.838;4.226;2024-03-02T02:30:32;0.30;;;0.30;;
13895;SDS011;7018;50.838;4.226;2024-03-02T02:33:01;0.20;;;0.20;;
13895;SDS011;7018;50.838;4.226;2024-03-02T02:35:29;0.40;;;0.40;;
13895;SDS011;7018;50.838;4.226;2024-03-02T02:37:57;0.30;;;0.30;;
13895;SDS011;7018;50.838;4.226;2024-03-02T02:40:25;0.20;;;0.20;;
13895;SDS011;7018;50.838;4.226;2024-03-02T02:42:53;0.27;;;0.27;;
13895;SDS011;7018;50.838;4.226;2024-03-02T02:45:21;0.20;;;0.20;;
13895;SDS011;7018;50.838;4.226;2024-03-02T02:47:48;0.30;;;0.30;;
13895;SDS011;7018;50.838;4.226;2024-03-02T02:50:16;0.20;;;0.20;;
13895;SDS011;7018;50.838;4.226;2024-03-02T02:52:47;0.20;;;0.20;;
13895;SDS011;7018;50.838;4.226;2024-03-02T02:55:15;0.20;;;0.20;;
13895;SDS011;7018;50.838;4.226;2024-03-02T02:57:43;0.30;;;0.30;;
13895;SDS011;7018;50.838;4.226;2024-03-02T03:00:13;0.30;;;0.30;;
13895;SDS011;7018;50.838;4.226;2024-03-02T03:02:41;0.30;;;0.30;;
13895;SDS011;7018;50.838;4.226;2024-03-02T03:05:10;0.20;;;0.20;;
13895;SDS011;7018;50.838;4.226;2024-03-02T03:07:41;0.27;;;0.27;;
13895;SDS011;7018;50.838;4.226;2024-03-02T03:10:09;0.37;;;0.37;;
13895;SDS011;7018;50.838;4.226;2024-03-02T03:12:36;0.40;;;0.40;;
13895;SDS011;7018;50.838;4.226;2024-03-02T03:15:05;0.30;;;0.30;;
13895;SDS011;7018;50.838;4.226;2024-03-02T03:17:33;0.20;;;0.20;;
13895;SDS011;7018;50.838;4.226;2024-03-02T03:20:02;0.33;;;0.33;;
13895;SDS011;7018;50.838;4.226;2024-03-02T03:22:30;0.40;;;0.40;;
13895;SDS011;7018;50.838;4.226;2024-03-02T03:24:58;0.37;;;0.37;;
13895;SDS011;7018;50.838;4.226;2024-03-02T03:27:26;0.30;;;0.30;;
13895;SDS011;7018;50.838;4.226;2024-03-02T03:29:54;0.40;;;0.40;;
13895;SDS011;7018;50.838;4.226;2024-03-02T03:32:22;0.20;;;0.20;;
13895;SDS011;7018;50.838;4.226;2024-03-02T03:34:51;0.20;;;0.20;;
13895;SDS011;7018;50.838;4.226;2024-03-02T03:37:19;0.30;;;0.30;;
13895;SDS011;7018;50.838;4.226;2024-03-02T03:39:46;0.30;;;0.30;;
13895;SDS011;7018;50.838;4.226;2024-03-02T03:42:14;0.30;;;0.30;;
13895;SDS011;7018;50.838;4.226;2024-03-02T03:44:42;0.33;;;0.33;;
13895;SDS011;7018;50.838;4.226;2024-03-02T03:47:10;0.30;;;0.30;;
13895;SDS011;7018;50.838;4.226;2024-03-02T03:49:38;0.20;;;0.20;;
13895;SDS011;7018;50.838;4.226;2024-03-02T03:52:06;0.30;;;0.30;;
13895;SDS011;7018;50.838;4.226;2024-03-02T03:54:33;0.20;;;0.20;;
13895;SDS011;7018;50.838;4.226;2024-03-02T03:57:04;0.20;;;0.20;;
13895;SDS011;7018;50.838;4.226;2024-03-02T03:59:32;0.30;;;0.30;;
13895;SDS011;7018;50.838;4.226;2024-03-02T04:02:00;0.30;;;0.30;;
13895;SDS011;7018;50.838;4.226;2024-03-02T04:04:29;0.23;;;0.23;;
13895;SDS011;7018;50.838;4.226;2024-03-02T04:06:57;0.30;;;0.30;;
13895;SDS011;7018;50.838;4.226;2024-03-02T04:09:24;0.30;;;0.30;;
13895;SDS011;7018;50.838;4.226;2024-03-02T04:11:53;0.20;;;0.20;;
13895;SDS011;7018;50.838;4.226;2024-03-02T04:14:21;0.20;;;0.20;;
13895;SDS011;7018;50.838;4.226;2024-03-02T04:16:49;0.23;;;0.23;;
13895;SDS011;7018;50.838;4.226;2024-03-02T04:19:17;0.23;;;0.23;;
13895;SDS011;7018;50.838;4.226;2024-03-02T04:21:45;0.23;;;0.23;;
13895;SDS011;7018;50.838;4.226;2024-03-02T04:24:13;0.30;;;0.30;;
13895;SDS011;7018;50.838;4.226;2024-03-02T04:26:40;0.20;;;0.20;;
13895;SDS011;7018;50.838;4.226;2024-03-02T04:29:08;0.20;;;0.20;;
13895;SDS011;7018;50.838;4.226;2024-03-02T04:31:36;0.20;;;0.20;;
13895;SDS011;7018;50.838;4.226;2024-03-02T04:34:04;0.27;;;0.27;;
13895;SDS011;7018;50.838;4.226;2024-03-02T04:36:32;0.20;;;0.20;;
13895;SDS011;7018;50.838;4.226;2024-03-02T04:39:00;0.30;;;0.30;;
13895;SDS011;7018;50.838;4.226;2024-03-02T04:41:27;0.30;;;0.30;;
13895;SDS011;7018;50.838;4.226;2024-03-02T04:43:56;0.30;;;0.30;;
13895;SDS011;7018;50.838;4.226;2024-03-02T04:46:23;0.30;;;0.30;;
13895;SDS011;7018;50.838;4.226;2024-03-02T04:48:51;0.30;;;0.30;;
13895;SDS011;7018;50.838;4.226;2024-03-02T04:51:22;0.40;;;0.40;;
13895;SDS011;7018;50.838;4.226;2024-03-02T04:53:51;0.37;;;0.37;;
13895;SDS011;7018;50.838;4.226;2024-03-02T04:56:18;0.30;;;0.30;;
13895;SDS011;7018;50.838;4.226;2024-03-02T04:59:06;0.30;;;0.30;;
13895;SDS011;7018;50.838;4.226;2024-03-02T05:01:34;0.30;;;0.30;;
13895;SDS011;7018;50.838;4.226;2024-03-02T05:04:02;0.30;;;0.30;;
13895;SDS011;7018;50.838;4.226;2024-03-02T05:06:30;0.30;;;0.30;;
13895;SDS011;7018;50.838;4.226;2024-03-02T05:08:58;0.30;;;0.30;;
13895;SDS011;7018;50.838;4.226;2024-03-02T05:11:25;0.40;;;0.40;;
13895;SDS011;7018;50.838;4.226;2024-03-02T05:14:20;0.33;;;0.33;;
13895;SDS011;7018;50.838;4.226;2024-03-02T05:16:47;0.40;;;0.40;;
13895;SDS011;7018;50.838;4.226;2024-03-02T05:19:15;0.40;;;0.40;;
13895;SDS011;7018;50.838;4.226;2024-03-02T05:21:43;0.30;;;0.30;;
13895;SDS011;7018;50.838;4.226;2024-03-02T05:24:11;0.30;;;0.30;;
13895;SDS011;7018;50.838;4.226;2024-03-02T05:26:39;0.47;;;0.47;;
13895;SDS011;7018;50.838;4.226;2024-03-02T05:29:07;0.33;;;0.33;;
13895;SDS011;7018;50.838;4.226;2024-03-02T05:31:35;0.30;;;0.30;;
13895;SDS011;7018;50.838;4.226;2024-03-02T05:34:03;0.30;;;0.30;;
13895;SDS011;7018;50.838;4.226;2024-03-02T05:36:32;0.33;;;0.33;;
13895;SDS011;7018;50.838;4.226;2024-03-02T05:39:00;0.30;;;0.30;;
13895;SDS011;7018;50.838;4.226;2024-03-02T05:41:29;0.30;;;0.30;;
13895;SDS011;7018;50.838;4.226;2024-03-02T05:43:59;0.30;;;0.30;;
13895;SDS011;7018;50.838;4.226;2024-03-02T06:19:36;0.30;;;0.30;;
13895;SDS011;7018;50.838;4.226;2024-03-02T06:22:04;0.20;;;0.20;;
13895;SDS011;7018;50.838;4.226;2024-03-02T06:24:32;0.30;;;0.30;;
13895;SDS011;7018;50.838;4.226;2024-03-02T06:27:00;0.30;;;0.30;;
13895;SDS011;7018;50.838;4.226;2024-03-02T06:29:27;0.33;;;0.33;;
13895;SDS011;7018;50.838;4.226;2024-03-02T06:31:55;0.30;;;0.30;;
13895;SDS011;7018;50.838;4.226;2024-03-02T06:34:23;0.30;;;0.30;;
13895;SDS011;7018;50.838;4.226;2024-03-02T06:36:52;0.30;;;0.30;;
13895;SDS011;7018;50.838;4.226;2024-03-02T06:39:20;0.40;;;0.40;;
13895;SDS011;7018;50.838;4.226;2024-03-02T06:41:48;0.23;;;0.23;;
13895;SDS011;7018;50.838;4.226;2024-03-02T06:44:15;0.23;;;0.23;;
13895;SDS011;7018;50.838;4.226;2024-03-02T06:46:43;0.30;;;0.30;;
13895;SDS011;7018;50.838;4.226;2024-03-02T06:49:11;0.40;;;0.40;;
13895;SDS011;7018;50.838;4.226;2024-03-02T06:51:39;0.30;;;0.30;;
13895;SDS011;7018;50.838;4.226;2024-03-02T06:54:09;0.40;;;0.40;;
13895;SDS011;7018;50.838;4.226;2024-03-02T06:56:37;0.30;;;0.30;;
13895;SDS011;7018;50.838;4.226;2024-03-02T06:59:05;0.30;;;0.30;;
13895;SDS011;7018;50.838;4.226;2024-03-02T07:01:33;0.30;;;0.30;;
13895;SDS011;7018;50.838;4.226;2024-03-02T07:04:01;0.30;;;0.30;;
13895;SDS011;7018;50.838;4.226;2024-03-02T07:06:29;0.40;;;0.40;;
13895;SDS011;7018;50.838;4.226;2024-03-02T07:08:57;0.20;;;0.20;;
13895;SDS011;7018;50.838;4.226;2024-03-02T07:11:25;0.30;;;0.30;;
13895;SDS011;7018;50.838;4.226;2024-03-02T07:13:53;0.20;;;0.20;;
13895;SDS011;7018;50.838;4.226;2024-03-02T07:16:20;0.30;;;0.30;;
13895;SDS011;7018;50.838;4.226;2024-03-02T07:18:55;0.30;;;0.30;;
13895;SDS011;7018;50.838;4.226;2024-03-02T07:21:23;0.30;;;0.30;;
13895;SDS011;7018;50.838;4.226;2024-03-02T07:23:51;0.23;;;0.23;;
13895;SDS011;7018;50.838;4.226;2024-03-02T07:26:19;0.30;;;0.30;;
13895;SDS011;7018;50.838;4.226;2024-03-02T07:28:50;0.23;;;0.23;;
13895;SDS011;7018;50.838;4.226;2024-03-02T07:31:23;0.30;;;0.30;;
13895;SDS011;7018;50.838;4.226;2024-03-02T07:36:37;0.23;;;0.23;;
13895;SDS011;7018;50.838;4.226;2024-03-02T07:39:05;0.27;;;0.27;;
13895;SDS011;7018;50.838;4.226;2024-03-02T07:41:34;0.30;;;0.30;;
13895;SDS011;7018;50.838;4.226;2024-03-02T07:44:02;0.20;;;0.20;;
13895;SDS011;7018;50.838;4.226;2024-03-02T07:46:29;0.30;;;0.30;;
13895;SDS011;7018;50.838;4.226;2024-03-02T07:48:57;0.20;;;0.20;;
13895;SDS011;7018;50.838;4.226;2024-03-02T07:51:25;0.30;;;0.30;;
13895;SDS011;7018;50.838;4.226;2024-03-02T07:53:53;0.30;;;0.30;;
13895;SDS011;7018;50.838;4.226;2024-03-02T07:56:21;0.20;;;0.20;;
13895;SDS011;7018;50.838;4.226;2024-03-02T07:58:49;0.20;;;0.20;;
13895;SDS011;7018;50.838;4.226;2024-03-02T08:01:17;0.30;;;0.30;;
13895;SDS011;7018;50.838;4.226;2024-03-02T08:03:44;0.20;;;0.20;;
13895;SDS011;7018;50.838;4.226;2024-03-02T08:06:17;0.20;;;0.20;;
13895;SDS011;7018;50.838;4.226;2024-03-02T08:08:47;0.30;;;0.30;;
13895;SDS011;7018;50.838;4.226;2024-03-02T08:11:15;0.30;;;0.30;;
13895;SDS011;7018;50.838;4.226;2024-03-02T08:13:43;0.30;;;0.30;;
13895;SDS011;7018;50.838;4.226;2024-03-02T08:16:11;0.37;;;0.37;;
13895;SDS011;7018;50.838;4.226;2024-03-02T08:18:39;0.27;;;0.27;;
13895;SDS011;7018;50.838;4.226;2024-03-02T08:21:07;0.37;;;0.37;;
13895;SDS011;7018;50.838;4.226;2024-03-02T08:23:35;0.20;;;0.20;;
13895;SDS011;7018;50.838;4.226;2024-03-02T08:26:03;0.30;;;0.30;;
13895;SDS011;7018;50.838;4.226;2024-03-02T08:28:31;0.30;;;0.30;;
13895;SDS011;7018;50.838;4.226;2024-03-02T08:30:59;0.30;;;0.30;;
13895;SDS011;7018;50.838;4.226;2024-03-02T08:33:27;0.20;;;0.20;;
13895;SDS011;7018;50.838;4.226;2024-03-02T08:35:55;0.20;;;0.20;;
13895;SDS011;7018;50.838;4.226;2024-03-02T08:38:23;0.30;;;0.30;;
13895;SDS011;7018;50.838;4.226;2024-03-02T08:40:51;0.30;;;0.30;;
13895;SDS011;7018;50.838;4.226;2024-03-02T08:43:20;0.20;;;0.20;;
13895;SDS011;7018;50.838;4.226;2024-03-02T08:45:49;0.40;;;0.40;;
13895;SDS011;7018;50.838;4.226;2024-03-02T08:48:17;0.30;;;0.30;;
13895;SDS011;7018;50.838;4.226;2024-03-02T08:50:47;0.40;;;0.40;;
13895;SDS011;7018;50.838;4.226;2024-03-02T08:53:14;0.30;;;0.30;;
13895;SDS011;7018;50.838;4.226;2024-03-02T08:55:45;0.40;;;0.40;;
13895;SDS011;7018;50.838;4.226;2024-03-02T08:58:13;0.20;;;0.20;;
13895;SDS011;7018;50.838;4.226;2024-03-02T09:00:41;0.30;;;0.30;;
13895;SDS011;7018;50.838;4.226;2024-03-02T09:03:09;0.30;;;0.30;;
13895;SDS011;7018;50.838;4.226;2024-03-02T09:05:37;0.30;;;0.30;;
13895;SDS011;7018;50.838;4.226;2024-03-02T09:08:04;0.30;;;0.30;;
13895;SDS011;7018;50.838;4.226;2024-03-02T09:10:32;0.40;;;0.40;;
13895;SDS011;7018;50.838;4.226;2024-03-02T09:13:00;0.30;;;0.30;;
13895;SDS011;7018;50.838;4.226;2024-03-02T09:15:28;0.40;;;0.40;;
13895;SDS011;7018;50.838;4.226;2024-03-02T09:17:56;0.40;;;0.40;;
13895;SDS011;7018;50.838;4.226;2024-03-02T09:20:24;0.43;;;0.43;;
13895;SDS011;7018;50.838;4.226;2024-03-02T09:22:52;0.20;;;0.20;;
13895;SDS011;7018;50.838;4.226;2024-03-02T09:25:20;0.30;;;0.30;;
13895;SDS011;7018;50.838;4.226;2024-03-02T09:27:48;0.23;;;0.23;;
13895;SDS011;7018;50.838;4.226;2024-03-02T09:30:15;0.30;;;0.30;;
13895;SDS011;7018;50.838;4.226;2024-03-02T09:32:43;0.23;;;0.23;;
13895;SDS011;7018;50.838;4.226;2024-03-02T09:35:12;0.40;;;0.40;;
13895;SDS011;7018;50.838;4.226;2024-03-02T09:37:40;0.37;;;0.37;;
13895;SDS011;7018;50.838;4.226;2024-03-02T09:40:07;0.40;;;0.40;;
13895;SDS011;7018;50.838;4.226;2024-03-02T09:42:35;0.30;;;0.30;;
13895;SDS011;7018;50.838;4.226;2024-03-02T09:45:04;0.30;;;0.30;;
13895;SDS011;7018;50.838;4.226;2024-03-02T09:47:32;0.30;;;0.30;;
13895;SDS011;7018;50.838;4.226;2024-03-02T09:50:00;0.33;;;0.33;;
13895;SDS011;7018;50.838;4.226;2024-03-02T09:52:29;0.40;;;0.40;;
13895;SDS011;7018;50.838;4.226;2024-03-02T09:54:58;0.30;;;0.30;;
13895;SDS011;7018;50.838;4.226;2024-03-02T09:57:26;0.27;;;0.27;;
13895;SDS011;7018;50.838;4.226;2024-03-02T09:59:53;0.40;;;0.40;;
13895;SDS011;7018;50.838;4.226;2024-03-02T10:02:21;0.30;;;0.30;;
13895;SDS011;7018;50.838;4.226;2024-03-02T10:04:49;0.40;;;0.40;;
13895;SDS011;7018;50.838;4.226;2024-03-02T10:07:17;0.50;;;0.50;;
13895;SDS011;7018;50.838;4.226;2024-03-02T10:09:47;0.40;;;0.40;;
13895;SDS011;7018;50.838;4.226;2024-03-02T10:12:15;0.40;;;0.40;;
13895;SDS011;7018;50.838;4.226;2024-03-02T10:14:44;0.50;;;0.50;;
13895;SDS011;7018;50.838;4.226;2024-03-02T10:17:16;0.40;;;0.40;;
13895;SDS011;7018;50.838;4.226;2024-03-02T10:19:45;0.43;;;0.43;;
13895;SDS011;7018;50.838;4.226;2024-03-02T10:22:12;0.30;;;0.30;;
13895;SDS011;7018;50.838;4.226;2024-03-02T10:24:43;0.40;;;0.40;;
13895;SDS011;7018;50.838;4.226;2024-03-02T10:27:25;0.30;;;0.30;;
13895;SDS011;7018;50.838;4.226;2024-03-02T10:29:54;0.40;;;0.40;;
13895;SDS011;7018;50.838;4.226;2024-03-02T10:32:22;0.20;;;0.20;;
13895;SDS011;7018;50.838;4.226;2024-03-02T10:34:50;0.30;;;0.30;;
13895;SDS011;7018;50.838;4.226;2024-03-02T10:37:18;0.30;;;0.30;;
13895;SDS011;7018;50.838;4.226;2024-03-02T10:39:47;0.50;;;0.50;;
13895;SDS011;7018;50.838;4.226;2024-03-02T10:42:15;0.50;;;0.50;;
13895;SDS011;7018;50.838;4.226;2024-03-02T10:44:44;0.40;;;0.40;;
13895;SDS011;7018;50.838;4.226;2024-03-02T10:47:12;0.30;;;0.30;;
13895;SDS011;7018;50.838;4.226;2024-03-02T10:49:41;0.40;;;0.40;;
13895;SDS011;7018;50.838;4.226;2024-03-02T10:52:10;0.57;;;0.57;;
13895;SDS011;7018;50.838;4.226;2024-03-02T10:54:39;0.40;;;0.40;;
13895;SDS011;7018;50.838;4.226;2024-03-02T10:57:07;0.50;;;0.50;;
13895;SDS011;7018;50.838;4.226;2024-03-02T10:59:37;0.50;;;0.50;;
13895;SDS011;7018;50.838;4.226;2024-03-02T11:02:06;0.40;;;0.40;;
13895;SDS011;7018;50.838;4.226;2024-03-02T11:04:34;0.50;;;0.50;;
13895;SDS011;7018;50.838;4.226;2024-03-02T11:07:09;0.30;;;0.30;;
13895;SDS011;7018;50.838;4.226;2024-03-02T11:09:38;0.47;;;0.47;;
13895;SDS011;7018;50.838;4.226;2024-03-02T11:14:35;0.60;;;0.60;;
13895;SDS011;7018;50.838;4.226;2024-03-02T11:17:05;0.50;;;0.50;;
13895;SDS011;7018;50.838;4.226;2024-03-02T11:19:34;0.50;;;0.50;;
13895;SDS011;7018;50.838;4.226;2024-03-02T11:22:03;0.43;;;0.43;;
13895;SDS011;7018;50.838;4.226;2024-03-02T11:24:31;0.40;;;0.40;;
13895;SDS011;7018;50.838;4.226;2024-03-02T11:27:02;0.47;;;0.47;;
13895;SDS011;7018;50.838;4.226;2024-03-02T11:32:19;0.30;;;0.30;;
13895;SDS011;7018;50.838;4.226;2024-03-02T11:34:49;0.50;;;0.50;;
13895;SDS011;7018;50.838;4.226;2024-03-02T11:37:17;0.60;;;0.60;;
13895;SDS011;7018;50.838;4.226;2024-03-02T11:39:46;0.40;;;0.40;;
13895;SDS011;7018;50.838;4.226;2024-03-02T11:42:14;0.40;;;0.40;;
13895;SDS011;7018;50.838;4.226;2024-03-02T11:44:43;0.40;;;0.40;;
13895;SDS011;7018;50.838;4.226;2024-03-02T11:47:15;0.40;;;0.40;;
13895;SDS011;7018;50.838;4.226;2024-03-02T11:49:46;0.57;;;0.57;;
13895;SDS011;7018;50.838;4.226;2024-03-02T11:52:16;0.40;;;0.40;;
13895;SDS011;7018;50.838;4.226;2024-03-02T11:54:45;0.30;;;0.30;;
13895;SDS011;7018;50.838;4.226;2024-03-02T11:57:18;0.50;;;0.50;;
13895;SDS011;7018;50.838;4.226;2024-03-02T11:59:47;0.50;;;0.50;;
13895;SDS011;7018;50.838;4.226;2024-03-02T12:02:19;0.50;;;0.50;;
13895;SDS011;7018;50.838;4.226;2024-03-02T12:04:48;0.50;;;0.50;;
13895;SDS011;7018;50.838;4.226;2024-03-02T12:07:20;0.40;;;0.40;;
13895;SDS011;7018;50.838;4.226;2024-03-02T12:10:00;0.50;;;0.50;;
13895;SDS011;7018;50.838;4.226;2024-03-02T12:12:29;0.40;;;0.40;;
13895;SDS011;7018;50.838;4.226;2024-03-02T12:14:58;0.40;;;0.40;;
13895;SDS011;7018;50.838;4.226;2024-03-02T12:17:27;0.60;;;0.60;;
13895;SDS011;7018;50.838;4.226;2024-03-02T12:19:55;0.57;;;0.57;;
13895;SDS011;7018;50.838;4.226;2024-03-02T12:22:23;0.50;;;0.50;;
13895;SDS011;7018;50.838;4.226;2024-03-02T12:24:51;0.60;;;0.60;;
13895;SDS011;7018;50.838;4.226;2024-03-02T12:27:19;0.50;;;0.50;;
13895;SDS011;7018;50.838;4.226;2024-03-02T12:29:48;0.57;;;0.57;;
13895;SDS011;7018;50.838;4.226;2024-03-02T12:32:16;0.60;;;0.60;;
13895;SDS011;7018;50.838;4.226;2024-03-02T12:34:46;0.37;;;0.37;;
13895;SDS011;7018;50.838;4.226;2024-03-02T12:37:15;0.50;;;0.50;;
13895;SDS011;7018;50.838;4.226;2024-03-02T12:39:44;0.40;;;0.40;;
13895;SDS011;7018;50.838;4.226;2024-03-02T12:42:13;0.60;;;0.60;;
13895;SDS011;7018;50.838;4.226;2024-03-02T12:44:41;0.60;;;0.60;;
13895;SDS011;7018;50.838;4.226;2024-03-02T12:47:09;0.60;;;0.60;;
13895;SDS011;7018;50.838;4.226;2024-03-02T12:49:42;0.43;;;0.43;;
13895;SDS011;7018;50.838;4.226;2024-03-02T12:52:11;0.60;;;0.60;;
13895;SDS011;7018;50.838;4.226;2024-03-02T12:54:40;0.40;;;0.40;;
13895;SDS011;7018;50.838;4.226;2024-03-02T12:57:08;0.30;;;0.30;;
13895;SDS011;7018;50.838;4.226;2024-03-02T12:59:35;0.33;;;0.33;;
13895;SDS011;7018;50.838;4.226;2024-03-02T13:02:04;0.50;;;0.50;;
13895;SDS011;7018;50.838;4.226;2024-03-02T13:04:32;0.50;;;0.50;;
13895;SDS011;7018;50.838;4.226;2024-03-02T13:07:00;0.40;;;0.40;;
13895;SDS011;7018;50.838;4.226;2024-03-02T13:09:29;0.40;;;0.40;;
13895;SDS011;7018;50.838;4.226;2024-03-02T13:11:57;0.57;;;0.57;;
13895;SDS011;7018;50.838;4.226;2024-03-02T13:14:26;0.50;;;0.50;;
13895;SDS011;7018;50.838;4.226;2024-03-02T13:16:54;0.30;;;0.30;;
13895;SDS011;7018;50.838;4.226;2024-03-02T13:19:23;0.60;;;0.60;;
13895;SDS011;7018;50.838;4.226;2024-03-02T13:21:51;0.60;;;0.60;;
13895;SDS011;7018;50.838;4.226;2024-03-02T13:24:19;0.50;;;0.50;;
13895;SDS011;7018;50.838;4.226;2024-03-02T13:26:47;0.50;;;0.50;;
13895;SDS011;7018;50.838;4.226;2024-03-02T13:29:15;0.50;;;0.50;;
13895;SDS011;7018;50.838;4.226;2024-03-02T13:31:42;0.50;;;0.50;;
13895;SDS011;7018;50.838;4.226;2024-03-02T13:34:11;0.50;;;0.50;;
13895;SDS011;7018;50.838;4.226;2024-03-02T13:36:38;0.40;;;0.40;;
13895;SDS011;7018;50.838;4.226;2024-03-02T13:39:20;0.50;;;0.50;;
13895;SDS011;7018;50.838;4.226;2024-03-02T13:41:47;0.60;;;0.60;;
13895;SDS011;7018;50.838;4.226;2024-03-02T13:44:19;0.63;;;0.63;;
13895;SDS011;7018;50.838;4.226;2024-03-02T13:46:50;0.47;;;0.47;;
13895;SDS011;7018;50.838;4.226;2024-03-02T13:49:17;0.50;;;0.50;;
13895;SDS011;7018;50.838;4.226;2024-03-02T13:51:45;0.40;;;0.40;;
13895;SDS011;7018;50.838;4.226;2024-03-02T13:54:13;0.60;;;0.60;;
13895;SDS011;7018;50.838;4.226;2024-03-02T13:56:40;0.50;;;0.50;;
13895;SDS011;7018;50.838;4.226;2024-03-02T13:59:08;0.47;;;0.47;;
13895;SDS011;7018;50.838;4.226;2024-03-02T14:01:36;0.47;;;0.47;;
13895;SDS011;7018;50.838;4.226;2024-03-02T14:04:04;0.40;;;0.40;;
13895;SDS011;7018;50.838;4.226;2024-03-02T14:06:31;0.37;;;0.37;;
13895;SDS011;7018;50.838;4.226;2024-03-02T14:08:59;0.57;;;0.57;;
13895;SDS011;7018;50.838;4.226;2024-03-02T14:11:36;0.50;;;0.50;;
13895;SDS011;7018;50.838;4.226;2024-03-02T14:14:21;0.60;;;0.60;;
13895;SDS011;7018;50.838;4.226;2024-03-02T14:16:49;0.40;;;0.40;;
13895;SDS011;7018;50.838;4.226;2024-03-02T14:19:17;0.50;;;0.50;;
13895;SDS011;7018;50.838;4.226;2024-03-02T14:21:44;0.47;;;0.47;;
13895;SDS011;7018;50.838;4.226;2024-03-02T14:24:17;0.60;;;0.60;;
13895;SDS011;7018;50.838;4.226;2024-03-02T14:26:45;0.30;;;0.30;;
13895;SDS011;7018;50.838;4.226;2024-03-02T14:29:12;0.50;;;0.50;;
13895;SDS011;7018;50.838;4.226;2024-03-02T14:31:40;0.57;;;0.57;;
13895;SDS011;7018;50.838;4.226;2024-03-02T14:34:08;0.60;;;0.60;;
13895;SDS011;7018;50.838;4.226;2024-03-02T14:36:35;0.40;;;0.40;;
13895;SDS011;7018;50.838;4.226;2024-03-02T14:39:03;0.60;;;0.60;;
13895;SDS011;7018;50.838;4.226;2024-03-02T14:41:31;0.60;;;0.60;;
13895;SDS011;7018;50.838;4.226;2024-03-02T14:43:58;0.50;;;0.50;;
13895;SDS011;7018;50.838;4.226;2024-03-02T14:46:26;0.50;;;0.50;;
13895;SDS011;7018;50.838;4.226;2024-03-02T14:48:53;0.50;;;0.50;;
13895;SDS011;7018;50.838;4.226;2024-03-02T14:51:21;0.47;;;0.47;;
13895;SDS011;7018;50.838;4.226;2024-03-02T14:53:49;0.40;;;0.40;;
13895;SDS011;7018;50.838;4.226;2024-03-02T14:56:18;0.40;;;0.40;;
13895;SDS011;7018;50.838;4.226;2024-03-02T14:58:46;0.50;;;0.50;;
13895;SDS011;7018;50.838;4.226;2024-03-02T15:01:14;0.30;;;0.30;;
13895;SDS011;7018;50.838;4.226;2024-03-02T15:03:42;0.40;;;0.40;;
13895;SDS011;7018;50.838;4.226;2024-03-02T15:06:11;0.60;;;0.60;;
13895;SDS011;7018;50.838;4.226;2024-03-02T15:08:38;0.30;;;0.30;;
13895;SDS011;7018;50.838;4.226;2024-03-02T15:11:08;0.50;;;0.50;;
13895;SDS011;7018;50.838;4.226;2024-03-02T15:13:36;0.50;;;0.50;;
13895;SDS011;7018;50.838;4.226;2024-03-02T15:16:04;0.40;;;0.40;;
13895;SDS011;7018;50.838;4.226;2024-03-02T15:18:32;0.57;;;0.57;;
13895;SDS011;7018;50.838;4.226;2024-03-02T15:21:01;0.50;;;0.50;;
13895;SDS011;7018;50.838;4.226;2024-03-02T15:23:29;0.50;;;0.50;;
13895;SDS011;7018;50.838;4.226;2024-03-02T15:25:57;0.50;;;0.50;;
13895;SDS011;7018;50.838;4.226;2024-03-02T15:28:25;0.30;;;0.30;;
13895;SDS011;7018;50.838;4.226;2024-03-02T15:30:53;0.50;;;0.50;;
13895;SDS011;7018;50.838;4.226;2024-03-02T15:33:22;0.40;;;0.40;;
13895;SDS011;7018;50.838;4.226;2024-03-02T15:35:56;0.30;;;0.30;;
13895;SDS011;7018;50.838;4.226;2024-03-02T15:38:24;0.40;;;0.40;;
13895;SDS011;7018;50.838;4.226;2024-03-02T15:40:53;0.50;;;0.50;;
13895;SDS011;7018;50.838;4.226;2024-03-02T15:43:21;0.57;;;0.57;;
13895;SDS011;7018;50.838;4.226;2024-03-02T15:45:51;0.60;;;0.60;;
13895;SDS011;7018;50.838;4.226;2024-03-02T15:48:19;0.40;;;0.40;;
13895;SDS011;7018;50.838;4.226;2024-03-02T15:50:46;0.40;;;0.40;;
13895;SDS011;7018;50.838;4.226;2024-03-02T15:53:15;0.50;;;0.50;;
13895;SDS011;7018;50.838;4.226;2024-03-02T15:55:42;0.50;;;0.50;;
13895;SDS011;7018;50.838;4.226;2024-03-02T15:58:10;0.47;;;0.47;;
13895;SDS011;7018;50.838;4.226;2024-03-02T16:00:38;0.40;;;0.40;;
13895;SDS011;7018;50.838;4.226;2024-03-02T16:03:06;0.47;;;0.47;;